Flight Track Log - Related Links

Times and Time Zones

All times are in EDT time to prevent confusion due to time zone crossing. See the N6PZ flight status page for this flight to view local times or setup timezone preferences in your user account.

Time Position Orientation Groundspeed Altitude Reporting Facility
EDT Latitude Longitude Course Direction KTS MPH feet Rate Location/Type
Fri 03:14:00 PM 39.3838 -74.3992 57° Northeast  Level FlightAware Approximate
Fri 03:15:00 PM 39.2897 -74.5607 54° Northeast  Level FlightAware Approximate
Fri 03:16:00 PM 39.3209 -74.5192 49° Northeast  Level Estimated
Fri 03:17:00 PM 39.3520 -74.4777 49° Northeast  Level Estimated
Fri 03:18:00 PM 39.3831 -74.4361 38° Northeast  Level Estimated
Fri 03:18:44 PM 39.3206 -74.4594 53° Northeast 160 184 8,300  Level Washington Center
Fri 03:19:00 PM 39.4142 -74.3945 38° Northeast  Level Estimated
Fri 03:20:00 PM 39.4452 -74.3529 54° Northeast  Level Estimated
Fri 03:21:00 PM 39.4691 -74.3040 58° Northeast  Level FlightAware Approximate
Fri 03:21:01 PM 39.3725 -74.3775 51° Northeast 122 140 8,900  Level New York Center
Fri 03:22:00 PM 39.4930 -74.2550 58° Northeast  Level FlightAware Approximate
Fri 03:22:02 PM 39.3967 -74.3386 51° Northeast 127 146 9,000  Level New York Center
Fri 03:23:00 PM 39.5243 -74.2136 53° Northeast  Level Estimated
Fri 03:23:00 PM 39.4231 -74.2942 52° Northeast 137 158 9,000  Level New York Center
Fri 03:24:00 PM 39.4514 -74.2525 49° Northeast 144 166 9,000  Level New York Center
Fri 03:25:01 PM 39.4756 -74.2108 53° Northeast 155 178 9,000 -49 Level New York Center
Fri 03:26:02 PM 39.5061 -74.1639 50° Northeast 155 178 8,900 -50 Descending New York Center
Fri 03:27:00 PM 39.5344 -74.1219 49° Northeast 155 178 8,900  Level New York Center
Fri 03:28:01 PM 39.5608 -74.0775 52° Northeast 155 178 8,900  Level New York Center
Fri 03:30:01 PM 39.6175 -73.9886 50° Northeast 150 173 8,900  Level New York Center
Fri 03:31:01 PM 39.6456 -73.9467 49° Northeast 150 173 8,900  Level New York Center
Fri 03:32:02 PM 39.6719 -73.9019 53° Northeast 150 173 8,900  Level New York Center
Fri 03:33:02 PM 39.6981 -73.8628 49° Northeast 150 173 8,900  Level New York Center
Fri 03:34:01 PM 39.7283 -73.8183 48° Northeast 150 173 8,900  Level New York Center
Fri 03:35:01 PM 39.7567 -73.7708 52° Northeast 150 173 8,900  Level New York Center
Fri 03:36:00 PM 39.7850 -73.7261 50° Northeast 150 173 8,900  Level New York Center
Fri 03:37:01 PM 39.8111 -73.6814 53° Northeast 150 173 8,900  Level New York Center
Fri 03:38:02 PM 39.8372 -73.6364 53° Northeast 150 173 8,900  Level New York Center
Fri 03:39:02 PM 39.8653 -73.5944 49° Northeast 150 173 8,900  Level New York Center
Fri 03:40:01 PM 39.8933 -73.5494 51° Northeast 150 173 8,900  Level New York Center
Fri 03:41:03 PM 39.9236 -73.5100 45° Northeast 150 173 8,900  Level New York Center
Fri 03:42:01 PM 39.9556 -73.4733 41° Northeast 150 173 8,900  Level New York Center
Fri 03:43:01 PM 39.9858 -73.4339 45° Northeast 159 183 8,900  Level New York Center
Fri 03:44:28 PM 40.0328 -73.3808 41° Northeast 158 182 8,900  Level Boston Center
Fri 03:45:29 PM 40.0692 -73.3344 44° Northeast 158 182 8,900 49 Level Boston Center
Fri 03:46:31 PM 40.1036 -73.2986 39° Northeast 157 181 9,000  Climbing Boston Center
Fri 03:47:33 PM 40.1339 -73.2575 46° Northeast 157 181 8,900 -49 Descending Boston Center
Fri 03:48:34 PM 40.1656 -73.2208 41° Northeast 156 180 8,900  Level Boston Center
Fri 03:49:36 PM 40.1989 -73.1828 41° Northeast 156 180 8,900  Level Boston Center
Fri 03:50:37 PM 40.2311 -73.1456 41° Northeast 156 180 8,900  Level Boston Center
Fri 03:51:39 PM 40.2631 -73.1078 42° Northeast 156 180 8,900  Level Boston Center
Fri 03:52:40 PM 40.2953 -73.0689 43° Northeast 156 180 8,900  Level Boston Center
Fri 03:53:42 PM 40.3336 -73.0233 42° Northeast 156 180 8,900  Level Boston Center
Fri 03:54:44 PM 40.3639 -72.9844 44° Northeast 155 178 8,900  Level Boston Center
Fri 03:55:45 PM 40.3969 -72.9467 41° Northeast 155 178 8,900  Level Boston Center
Fri 03:56:47 PM 40.4300 -72.9075 42° Northeast 157 181 8,900  Level Boston Center
Fri 03:57:49 PM 40.4617 -72.8700 42° Northeast 157 181 8,900  Level Boston Center
Fri 03:58:50 PM 40.4925 -72.8311 44° Northeast 157 181 8,900  Level Boston Center
Fri 03:59:52 PM 40.5250 -72.7936 41° Northeast 156 180 8,900 -194 Level Boston Center
Fri 04:00:54 PM 40.5628 -72.7467 43° Northeast 156 180 8,500 -439 Descending Boston Center
Fri 04:01:55 PM 40.6000 -72.7081 38° Northeast 165 190 8,000 -488 Descending Boston Center
Fri 04:02:57 PM 40.6375 -72.6725 36° Northeast 166 191 7,500 -581 Descending Boston Center
Fri 04:03:59 PM 40.6758 -72.6336 38° Northeast 169 194 6,800 -683 Descending Boston Center
Fri 04:05:00 PM 40.7147 -72.5942 38° Northeast 173 199 6,100 -732 Descending Boston Center
Fri 04:06:02 PM 40.7539 -72.5547 37° Northeast 175 201 5,300 -1,403 Descending Boston Center
Fri 04:07:04 PM 40.7864 -72.4842 59° Northeast 206 237 3,200 -1,610 Descending Boston Center
Fri 04:08:05 PM 40.8050 -72.4178 70° East 205 236 2,000 -634 Descending Boston Center
Fri 04:09:07 PM 40.8394 -72.3747 43° Northeast 185 213 1,900  Descending Boston Center
Fri 04:10:08 PM 40.8753 -72.3422 34° Northeast 169 194 2,000 49 Climbing Boston Center
Fri 04:11:10 PM 40.9158 -72.3200 22° Northeast 161 185 2,000 -242 Level Boston Center
Fri 04:12:12 PM 40.9461 -72.2811 44° Northeast 156 180 1,500 -537 Descending Boston Center
Fri 04:13:13 PM 40.9494 -72.2336 85° East 121 139 900 -585 Descending Boston Center
Fri 04:14:15 PM 40.9614 -72.2494 315° West 120 138 300 -581 Descending Boston Center
Fri 04:17:00 PM 40.9594 -72.2517 270° West  Level Estimated

Login

Don't have an account? Register now (free) for customized features, flight alerts, and more!